San Antonio, Valles Caldera, New Mexico Weather observations

Data are for 10 minute period ending at time listed.
 Day   Time   Solar   Ave.   Ave.  Ave.  Vector  Max.   Baro.   Total    
  of    of     Rad.   Air    Rel.  Wind   Wind   Wind  Press.  Precip.   
Year   Day            Temp.  Hum.  Speed  Dir.   Gust                    
2016   (MST)  Kw/m2    F      %     mph   deg.    mph    mb.     in.     
-------------------------------------------------------------------------
 274    1:30   0.00   41.8    90    1.4   152     3.6   99999.0    0.00 
 274    1:40   0.00   41.5    90    3.3     8     6.0   99999.0    0.00 
 274    1:50   0.00   41.2    90    3.4   343     6.6   99999.0    0.00 
 274    2:00   0.00   40.5    90    2.6   349     6.6   99999.0    0.00 
 274    2:10   0.00   39.9    91    3.0   332     6.0   99999.0    0.00 
 274    2:20   0.00   40.2    92    2.3    63     4.8   99999.0    0.00 
 274    2:30   0.00   40.9    91    2.3   168     5.4   99999.0    0.00 
 274    2:40   0.00   40.8    92    2.0   102     6.6   99999.0    0.00 
 274    2:50   0.00   41.9    90    2.0   103     4.8   99999.0    0.00 
 274    3:00   0.00   41.7    90    2.7   347     5.4   99999.0    0.00 
 274    3:10   0.00   41.2    90    2.5    86     4.8   99999.0    0.00 
 274    3:20   0.00   41.5    90    2.0   162     4.2   99999.0    0.00 
 274    3:30   0.00   40.4    91    2.4    20     5.4   99999.0    0.00 
 274    3:40   0.00   39.8    91    0.2   272     3.6   99999.0    0.00 
 274    3:50   0.00   39.8    92    0.1   271     2.4   99999.0    0.00 
 274    4:00   0.00   39.5    92    1.4    28     4.2   99999.0    0.00 
 274    4:10   0.00   39.2    93    0.0     0     0.0   99999.0    0.00 
 274    4:20   0.00   39.7    93    0.0     0     0.0   99999.0    0.00 
 274    4:30   0.00   39.7    93    0.7   264     3.6   99999.0    0.00 
 274    4:40   0.00   39.7    93    1.3   307     3.6   99999.0    0.00 
 274    4:50   0.00   39.6    93    1.9   253     4.2   99999.0    0.00 
 274    5:00   0.00   39.2    93    1.5    89     4.8   99999.0    0.00 
 274    5:10   0.00   39.1    93    0.5    16     3.0   99999.0    0.00 
 274    5:20   0.00   39.8    94    0.0     0     0.0   99999.0    0.00 
 274    5:30   0.00   39.6    93    1.2    65     4.2   99999.0    0.00 
 274    5:40   0.00   39.1    93    0.3    14     3.0   99999.0    0.00 
 274    5:50   0.00   38.5    93    0.3   199     2.4   99999.0    0.00 
 274    6:00   0.00   38.2    93    0.1   344     1.8   99999.0    0.00 
 274    6:10   0.00   38.2    94    1.1   101     4.2   99999.0    0.00 
 274    6:20   0.01   38.7    94    0.2    26     2.4   99999.0    0.00 
 274    6:30   0.01   38.4    94    0.0     0     0.0   99999.0    0.00 
 274    6:40   0.02   38.1    94    0.0     0     0.0   99999.0    0.00 
 274    6:50   0.02   37.6    94    0.0     0     0.0   99999.0    0.00 
 274    7:00   0.07   38.1    94    0.0     0     0.0   99999.0    0.00 
 274    7:10   0.20   42.9    94    0.0     0     0.0   99999.0    0.00 
 274    7:20   0.21   47.6    79    0.0     0     0.0   99999.0    0.00 
 274    7:30   0.25   49.7    71    0.0     0     0.0   99999.0    0.00 
 274    7:40   0.28   51.0    69    0.0     0     0.0   99999.0    0.00 
 274    7:50   0.31   51.9    68    0.0     0     0.0   99999.0    0.00 
 274    8:00   0.34   50.6    72    0.1   253     1.8   99999.0    0.00 
 274    8:10   0.38   51.4    72    0.0   244     1.2   99999.0    0.00 
 274    8:20   0.41   53.5    68    0.0     0     0.0   99999.0    0.00 
 274    8:30   0.44   56.4    63    0.0     0     0.0   99999.0    0.00 
 274    8:40   0.47   57.7    59    0.0     0     0.0   99999.0    0.00 
 274    8:50   0.50   58.1    59    0.2   230     3.6   99999.0    0.00 
 274    9:00   0.56   58.3    59    1.3   256     7.8   99999.0    0.00 
 274    9:10   0.69   59.5    57    4.4   244     7.8   99999.0    0.00 
 274    9:20   0.51   60.5    54    5.3   289     8.4   99999.0    0.00 
 274    9:30   0.35   61.1    52    4.1   303     9.0   99999.0    0.00 
 274    9:40   0.63   59.8    54    4.7   254     9.0   99999.0    0.00 
 274    9:50   0.73   60.7    53    5.1   259    10.2   99999.0    0.00 
 274   10:00   0.36   59.5    54    5.6   268    10.2   99999.0    0.00 
 274   10:10   0.71   60.8    54    6.6   297    10.8   99999.0    0.00 
 274   10:20   0.50   61.6    52    4.7   282     9.6   99999.0    0.00 
 274   10:30   0.78   61.5    50    7.1   269    14.3   99999.0    0.00 
 274   10:40   0.83   61.2    50    8.3   248    13.1   99999.0    0.00 
 274   10:50   0.84   62.1    51    9.3   248    14.9   99999.0    0.00 
 274   11:00   0.62   62.7    50    9.8   287    16.1   99999.0    0.00 
 274   11:10   0.31   60.9    51    7.3   298    11.9   99999.0    0.00 
 274   11:20   0.28   60.1    51    6.7   316    10.2   99999.0    0.00 
 274   11:30   0.59   61.0    49    5.0   282     9.0   99999.0    0.00 
 274   11:40   0.34   61.5    48    8.3   296    14.9   99999.0    0.00 
 274   11:50   0.46   61.0    51    5.4   310     9.0   99999.0    0.00 
 274   12:00   0.18   61.3    48    6.1   300    10.2   99999.0    0.00 
 274   12:10   0.25   60.6    50    4.5   288     6.6   99999.0    0.00 
 274   12:20   0.49   60.9    49    5.3   279     7.8   99999.0    0.00 
 274   12:30   0.63   63.5    45    5.4   297    14.9   99999.0    0.00 
 274   12:40   0.62   63.4    44    4.3   317    13.1   99999.0    0.00 
 274   12:50   0.89   64.9    39    7.2   242    11.9   99999.0    0.00 
 274   13:00   0.94   65.4    38    8.9   235    14.9   99999.0    0.00 
 274   13:10   0.94   66.1    36    8.1   255    18.5   99999.0    0.00 
 274   13:20   0.93   66.2    35    9.1   244    16.1   99999.0    0.00 
 274   13:30   0.88   66.2    36   10.7   278    23.3   99999.0    0.00 
 274   13:40   0.79   65.4    38    8.4   235    12.5   99999.0    0.00 
 274   13:50   0.75   66.1    39   10.1   261    16.1   99999.0    0.00 
 274   14:00   0.69   66.6    36   10.4   264    15.5   99999.0    0.00 
 274   14:10   0.62   66.3    34    8.0   273    14.3   99999.0    0.00 
 274   14:20   0.68   66.5    34    9.8   253    16.1   99999.0    0.00 
 274   14:30   0.66   66.3    34    8.1   262    13.1   99999.0    0.00 
 274   14:40   0.62   67.3    33    9.7   265    14.3   99999.0    0.00 
 274   14:50   0.59   66.6    34    9.0   256    15.5   99999.0    0.00 
 274   15:00   0.56   66.5    34   10.0   252    14.9   99999.0    0.00 
 274   15:10   0.54   66.4    33    9.4   264    15.5   99999.0    0.00 
 274   15:20   0.51   67.0    32    8.9   271    15.5   99999.0    0.00 
 274   15:30   0.47   66.7    32    8.1   262    12.5   99999.0    0.00 
 274   15:40   0.44   66.0    34    9.3   270    13.1   99999.0    0.00 
 274   15:50   0.41   66.1    34    9.0   258    12.5   99999.0    0.00 
 274   16:00   0.37   66.5    32    8.2   275    13.1   99999.0    0.00 
 274   16:10   0.34   66.7    32    9.2   274    14.9   99999.0    0.00 
 274   16:20   0.30   65.9    34    9.0   272    13.1   99999.0    0.00 
 274   16:30   0.27   66.6    32    9.3   285    14.9   99999.0    0.00 
 274   16:40   0.23   65.8    34    8.5   275    13.7   99999.0    0.00 
 274   16:50   0.20   64.6    36    7.7   270    13.1   99999.0    0.00 
 274   17:00   0.16   64.7    36    8.0   276    12.5   99999.0    0.00 
 274   17:10   0.10   63.6    38    7.5   287    11.3   99999.0    0.00 
 274   17:20   0.09   62.7    38    8.2   292    13.1   99999.0    0.00 
 274   17:30   0.06   62.3    39    6.8   294    11.3   99999.0    0.00 
 274   17:40   0.02   61.3    42    4.8   303     7.2   99999.0    0.00 
 274   17:50   0.01   58.2    47    3.3   331     7.8   99999.0    0.00 
 274   18:00   0.00   56.3    50    3.6   340     6.0   99999.0    0.00 
 274   18:10   0.00   55.1    52    2.7   340     5.4   99999.0    0.00 
 274   18:20   0.00   54.0    54    2.6   326     4.2   99999.0    0.00 
 274   18:30   0.00   52.2    58    0.5   264     2.4   99999.0    0.00 
 274   18:40   0.00   50.4    63    0.0     0     0.0   99999.0    0.00 
 274   18:50   0.00   49.8    64    2.1     8     3.6   99999.0    0.00 
 274   19:00   0.00   49.7    64    3.2    21     4.2   99999.0    0.00 
 274   19:10   0.00   49.4    65    3.4    24     4.8   99999.0    0.00 
 274   19:20   0.00   48.7    67    1.7   329     3.6   99999.0    0.00 
 274   19:30   0.00   48.2    68    1.8   352     4.2   99999.0    0.00 
 274   19:40   0.00   47.4    69    1.3    99     2.4   99999.0    0.00 
 274   19:50   0.00   46.6    70    0.8    14     2.4   99999.0    0.00 
 274   20:00   0.00   45.9    70    1.7    26     3.0   99999.0    0.00 
 274   20:10   0.00   45.4    70    1.2    26     4.2   99999.0    0.00 
 274   20:20   0.00   45.2    70    0.4    25     1.8   99999.0    0.00 
 274   20:30   0.00   44.6    71    0.0   307     1.2   99999.0    0.00 
 274   20:40   0.00   43.2    75    0.3    12     2.4   99999.0    0.00 
 274   20:50   0.00   42.6    76    0.5   304     2.4   99999.0    0.00 
 274   21:00   0.00   41.8    79    0.0     0     0.0   99999.0    0.00 
 274   21:10   0.00   41.7    78    0.0     0     0.0   99999.0    0.00 
 274   21:20   0.00   41.2    78    0.4    60     3.6   99999.0    0.00 
 274   21:30   0.00   41.4    77    1.0    15     3.0   99999.0    0.00 
 274   21:40   0.00   40.3    79    0.2   324     2.4   99999.0    0.00 
 274   21:50   0.00   38.9    82    0.6   298     3.0   99999.0    0.00 
 274   22:00   0.00   37.7    84    0.0     0     0.0   99999.0    0.00 
 274   22:10   0.00   37.4    87    1.1    54     4.2   99999.0    0.00 
 274   22:20   0.00   37.9    85    0.4   297     2.4   99999.0    0.00 
 274   22:30   0.00   38.3    86    1.5   356     3.0   99999.0    0.00 
 274   22:40   0.00   37.1    86    0.8    91     3.0   99999.0    0.00 
 274   22:50   0.00   36.4    88    0.0     0     0.0   99999.0    0.00 
 274   23:00   0.00   36.4    90    0.2    13     1.8   99999.0    0.00 
 274   23:10   0.00   36.9    88    1.6    76     4.2   99999.0    0.00 
 274   23:20   0.00   34.6    89    0.0     0     0.0   99999.0    0.00 
 274   23:30   0.00   34.6    91    0.0     0     0.0   99999.0    0.00 
 274   23:40   0.00   34.3    91    0.7   135     4.2   99999.0    0.00 
 274   23:50   0.00   34.0    93    0.8   328     3.0   99999.0    0.00 
 275    0:00   0.00   33.9    92    0.7   306     3.0   99999.0    0.00 
 275    0:10   0.00   33.2    92    0.3   158     3.0   99999.0    0.00 
 275    0:20   0.00   33.6    93    0.4   284     3.6   99999.0    0.00 
 275    0:30   0.00   34.0    94    0.0     0     0.0   99999.0    0.00 
 275    0:40   0.00   33.7    93    0.0     0     0.0   99999.0    0.00 
 275    0:50   0.00   31.4    92    0.0     0     0.0   99999.0    0.00 
 275    1:00   0.00   31.7    94    0.0     0     0.0   99999.0    0.00 
 275    1:10   0.00   32.3    94    0.0     0     0.0   99999.0    0.00 
 275    1:20   0.00   32.4    94    0.2   359     3.0   99999.0    0.00 

Return to San Antonio, Valles Caldera graphs page.


Western Regional Climate Center,wrcc@dri.edu